createdAt,value
2019-06-07T00:00:43.968Z,6.70
2019-06-07T00:03:23.647Z,9.20
2019-06-07T00:05:43.567Z,7.63
2019-06-07T00:08:21.305Z,7.17
2019-06-07T00:10:43.212Z,8.90
2019-06-07T00:13:15.226Z,8.27
2019-06-07T00:15:43.262Z,10.57
2019-06-07T00:18:16.707Z,7.30
2019-06-07T00:20:42.496Z,8.47
2019-06-07T00:23:14.764Z,9.63
2019-06-07T00:25:42.262Z,7.77
2019-06-07T00:28:11.079Z,8.73
2019-06-07T00:30:50.754Z,9.28
2019-06-07T00:33:15.339Z,10.23
2019-06-07T00:35:40.804Z,9.77
2019-06-07T00:38:09.857Z,10.00
2019-06-07T00:40:38.614Z,8.80
2019-06-07T00:43:07.398Z,9.40
2019-06-07T00:45:36.764Z,8.58
2019-06-07T00:48:05.638Z,10.75
2019-06-07T00:50:34.546Z,10.87
2019-06-07T00:53:28.877Z,9.37
2019-06-07T00:55:34.168Z,8.03
2019-06-07T00:58:03.181Z,11.05
2019-06-07T01:00:32.069Z,9.60
2019-06-07T01:03:00.812Z,8.33
2019-06-07T01:05:31.570Z,8.58
2019-06-07T01:08:01.809Z,13.90
2019-06-07T01:10:52.214Z,9.78
2019-06-07T01:13:01.724Z,8.13
2019-06-07T01:15:30.702Z,8.93
2019-06-07T01:18:33.826Z,8.33
2019-06-07T01:20:30.224Z,14.00
2019-06-07T01:22:59.286Z,9.23
2019-06-07T01:25:29.066Z,11.03
2019-06-07T01:27:58.157Z,10.33
2019-06-07T01:30:29.266Z,8.77
2019-06-07T01:32:58.342Z,10.40
2019-06-07T01:35:29.580Z,11.13
2019-06-07T01:37:58.078Z,10.37
2019-06-07T01:40:30.468Z,10.72
2019-06-07T01:42:57.611Z,10.70
2019-06-07T01:45:30.664Z,9.83
2019-06-07T01:47:57.033Z,8.78
2019-06-07T01:50:27.173Z,10.27
2019-06-07T01:52:56.123Z,9.30
2019-06-07T01:55:29.216Z,9.90
2019-06-07T01:57:55.853Z,10.53
2019-06-07T02:00:26.618Z,10.97
2019-06-07T02:02:55.557Z,10.67
2019-06-07T02:05:26.663Z,9.87
2019-06-07T02:07:54.969Z,14.27
2019-06-07T02:10:26.097Z,9.57
2019-06-07T02:12:54.774Z,11.70
2019-06-07T02:15:27.525Z,10.50
2019-06-07T02:17:54.211Z,11.48
2019-06-07T02:20:23.884Z,9.77
2019-06-07T02:22:53.422Z,9.90
2019-06-07T02:25:46.141Z,12.17
2019-06-07T02:27:52.969Z,13.03
2019-06-07T02:30:40.291Z,10.93
2019-06-07T02:32:52.608Z,10.97
2019-06-07T02:35:25.618Z,11.38
2019-06-07T02:37:52.391Z,15.93
2019-06-07T02:40:22.006Z,11.63
2019-06-07T02:42:50.815Z,12.40
2019-06-07T02:45:20.151Z,10.70
2019-06-07T02:47:49.056Z,10.13
2019-06-07T02:50:18.073Z,12.33
2019-06-07T02:52:46.891Z,9.80
2019-06-07T02:55:16.404Z,13.40
2019-06-07T02:57:45.351Z,10.87
2019-06-07T03:00:41.152Z,12.63
2019-06-07T03:02:46.681Z,9.53
2019-06-07T03:05:15.654Z,11.45
2019-06-07T03:07:46.709Z,9.90
2019-06-07T03:10:15.894Z,9.20
2019-06-07T03:12:47.044Z,9.93
2019-06-07T03:15:32.741Z,11.27
2019-06-07T03:17:57.252Z,12.03
2019-06-07T03:20:31.194Z,11.13
2019-06-07T03:23:01.428Z,10.70
2019-06-07T03:25:37.294Z,11.77
2019-06-07T03:28:07.593Z,11.97
2019-06-07T03:30:50.986Z,12.57
2019-06-07T03:33:07.228Z,13.23
2019-06-07T03:35:37.478Z,16.10
2019-06-07T03:38:09.272Z,13.30
2019-06-07T03:40:40.003Z,10.73
2019-06-07T03:43:08.569Z,11.97
2019-06-07T03:45:41.234Z,14.30
2019-06-07T03:48:08.046Z,11.07
2019-06-07T03:50:41.948Z,9.93
2019-06-07T03:53:07.399Z,10.30
2019-06-07T03:55:40.514Z,11.13
2019-06-07T04:00:42.129Z,13.10
2019-06-07T04:03:07.978Z,12.23
2019-06-07T04:05:41.253Z,13.62
2019-06-07T04:08:07.183Z,15.77
2019-06-07T04:10:55.641Z,14.07
2019-06-07T04:13:06.477Z,13.45
2019-06-07T04:15:38.304Z,12.73
2019-06-07T04:18:05.713Z,13.23
2019-06-07T04:20:36.627Z,12.47
2019-06-07T04:23:25.058Z,12.70
2019-06-07T04:25:39.469Z,12.07
2019-06-07T04:28:06.845Z,13.50
2019-06-07T04:30:41.991Z,14.53
2019-06-07T04:33:10.939Z,12.27
2019-06-07T04:35:42.975Z,13.33
2019-06-07T04:38:11.886Z,11.70
2019-06-07T04:40:42.795Z,12.87
2019-06-07T04:43:11.972Z,12.93
2019-06-07T04:45:50.354Z,12.97
2019-06-07T04:48:11.845Z,11.70
2019-06-07T04:50:43.641Z,13.23
2019-06-07T04:53:11.178Z,12.55
2019-06-07T04:55:41.666Z,12.93
2019-06-07T04:58:10.514Z,18.00
2019-06-07T05:00:52.766Z,16.53
2019-06-07T05:03:11.718Z,13.43
2019-06-07T05:05:43.542Z,12.77
2019-06-07T05:08:26.928Z,15.07
2019-06-07T05:10:43.866Z,16.63
2019-06-07T05:13:12.713Z,19.33
2019-06-07T05:15:42.346Z,14.47
2019-06-07T05:18:12.193Z,15.50
2019-06-07T05:20:44.321Z,15.03
2019-06-07T05:23:11.737Z,15.13
2019-06-07T05:25:44.484Z,15.03
2019-06-07T05:28:11.632Z,13.53
2019-06-07T05:33:15.266Z,11.80
2019-06-07T05:35:46.635Z,14.97
2019-06-07T05:38:15.594Z,13.40
2019-06-07T05:40:48.711Z,17.27
2019-06-07T05:43:23.507Z,14.23
2019-06-07T05:45:52.388Z,15.03
2019-06-07T05:48:21.358Z,14.43
2019-06-07T05:50:56.900Z,13.43
2019-06-07T05:53:20.892Z,13.90
2019-06-07T05:55:49.874Z,17.00
2019-06-07T05:58:19.005Z,13.87
2019-06-07T06:00:48.205Z,15.67
2019-06-07T06:03:20.018Z,12.53
2019-06-07T06:05:55.042Z,18.77
2019-06-07T06:08:19.416Z,14.33
2019-06-07T06:10:48.990Z,14.83
2019-06-07T06:13:17.953Z,15.97
2019-06-07T06:16:00.654Z,13.90
2019-06-07T06:18:23.415Z,16.45
2019-06-07T06:21:15.718Z,16.93
2019-06-07T06:23:25.518Z,16.70
2019-06-07T06:25:58.093Z,16.20
2019-06-07T06:28:27.864Z,18.03
2019-06-07T06:30:56.853Z,15.73
2019-06-07T06:33:33.427Z,14.87
2019-06-07T06:35:56.482Z,14.70
2019-06-07T06:38:25.426Z,21.63
2019-06-07T06:41:13.964Z,16.97
2019-06-07T06:43:24.653Z,14.93
2019-06-07T06:45:53.377Z,15.47
2019-06-07T06:48:22.170Z,14.60
2019-06-07T06:50:52.721Z,15.47
2019-06-07T06:53:21.408Z,13.33
2019-06-07T06:55:51.409Z,18.53
2019-06-07T06:58:20.380Z,15.57
2019-06-07T07:01:04.334Z,16.10
2019-06-07T07:03:56.070Z,15.90
2019-06-07T07:05:54.748Z,15.18
2019-06-07T07:08:23.210Z,15.13
2019-06-07T07:10:53.173Z,19.75
2019-06-07T07:13:23.819Z,16.60
2019-06-07T07:15:57.913Z,14.87
2019-06-07T07:18:23.263Z,20.87
2019-06-07T07:20:56.849Z,19.35
2019-06-07T07:23:23.174Z,18.60
2019-06-07T07:25:58.630Z,16.43
2019-06-07T07:28:22.873Z,16.07
2019-06-07T07:30:55.334Z,16.10
2019-06-07T07:33:24.233Z,16.10
2019-06-07T07:36:15.644Z,18.13
2019-06-07T07:38:23.489Z,17.23
2019-06-07T07:41:04.914Z,17.53
2019-06-07T07:43:24.241Z,17.73
2019-06-07T07:45:59.227Z,15.10
2019-06-07T07:48:24.129Z,17.57
2019-06-07T07:50:59.421Z,16.23
2019-06-07T07:53:24.158Z,16.80
2019-06-07T07:55:56.707Z,14.80
2019-06-07T07:58:23.610Z,20.30
2019-06-07T08:01:00.730Z,14.43
2019-06-07T08:03:22.899Z,14.03
2019-06-07T08:05:54.271Z,17.97
2019-06-07T08:08:22.220Z,15.60
2019-06-07T08:10:53.702Z,14.30
2019-06-07T08:13:26.343Z,15.93
2019-06-07T08:15:56.416Z,13.07
2019-06-07T08:18:23.018Z,16.17
2019-06-07T08:21:08.728Z,14.68
2019-06-07T08:23:22.968Z,12.70
2019-06-07T08:25:52.789Z,12.00
2019-06-07T08:28:22.805Z,13.68
2019-06-07T08:30:58.395Z,13.23
2019-06-07T08:33:26.878Z,10.10
2019-06-07T08:38:30.685Z,9.98
2019-06-07T08:41:00.797Z,10.07
2019-06-07T08:43:25.007Z,9.63
2019-06-07T08:46:00.878Z,9.93
2019-06-07T08:48:27.787Z,9.28
2019-06-07T08:50:57.599Z,10.73
2019-06-07T08:53:25.503Z,8.87
2019-06-07T08:55:58.865Z,12.27
2019-06-07T08:58:24.730Z,8.60
2019-06-07T09:00:55.741Z,8.90
2019-06-07T09:03:24.100Z,8.80
2019-06-07T09:05:54.166Z,9.00
2019-06-07T09:08:30.422Z,9.20
2019-06-07T09:10:56.503Z,9.60
2019-06-07T09:13:24.963Z,8.70
2019-06-07T09:15:55.948Z,8.20
2019-06-07T09:18:44.296Z,9.97
2019-06-07T09:20:58.194Z,8.67
2019-06-07T09:23:26.652Z,9.23
2019-06-07T09:26:04.894Z,9.20
2019-06-07T09:28:27.198Z,9.53
2019-06-07T09:30:57.823Z,9.50
2019-06-07T09:33:27.772Z,12.77
2019-06-07T09:35:58.638Z,10.63
2019-06-07T09:38:27.524Z,9.80
2019-06-07T09:40:58.106Z,11.23
2019-06-07T09:45:58.812Z,9.67
2019-06-07T09:49:09.690Z,10.23
2019-06-07T09:51:03.411Z,10.93
2019-06-07T09:53:29.377Z,11.20
2019-06-07T09:56:02.987Z,12.27
2019-06-07T09:58:51.050Z,11.10
2019-06-07T10:01:04.457Z,11.30
2019-06-07T10:03:33.331Z,10.80
2019-06-07T10:06:07.602Z,10.40
2019-06-07T10:11:04.717Z,14.40
2019-06-07T10:13:33.612Z,12.63
2019-06-07T10:16:02.782Z,11.30
2019-06-07T10:18:31.948Z,11.48
2019-06-07T10:21:03.588Z,11.85
2019-06-07T10:23:32.581Z,12.30
2019-06-07T10:26:01.674Z,9.63
2019-06-07T10:28:30.448Z,10.87
2019-06-07T10:31:00.102Z,11.77
2019-06-07T10:33:29.270Z,11.90
2019-06-07T10:36:08.640Z,12.10
2019-06-07T10:38:37.726Z,11.17
2019-06-07T10:41:07.075Z,11.73
2019-06-07T10:43:36.099Z,17.07
2019-06-07T10:46:05.743Z,12.05
2019-06-07T10:48:34.610Z,13.07
2019-06-07T10:51:04.236Z,12.77
2019-06-07T10:53:33.556Z,12.23
2019-06-07T10:56:02.954Z,12.53
2019-06-07T10:58:31.768Z,12.33
2019-06-07T11:01:00.633Z,11.67
2019-06-07T11:03:29.567Z,12.63
2019-06-07T11:05:58.315Z,12.80
2019-06-07T11:08:27.338Z,11.00
2019-06-07T11:10:56.167Z,11.53
2019-06-07T11:13:24.871Z,10.47
2019-06-07T11:15:53.911Z,10.50
2019-06-07T11:18:22.664Z,10.80
2019-06-07T11:20:51.409Z,10.87
2019-06-07T11:23:20.115Z,11.93
2019-06-07T11:25:49.000Z,11.40
2019-06-07T11:28:18.696Z,11.03
2019-06-07T11:30:47.547Z,10.43
2019-06-07T11:33:16.567Z,11.80
2019-06-07T11:35:45.348Z,10.43
2019-06-07T11:38:14.677Z,11.37
2019-06-07T11:40:43.601Z,10.40
2019-06-07T11:43:12.824Z,10.33
2019-06-07T11:45:41.760Z,10.77
2019-06-07T11:48:11.333Z,11.83
2019-06-07T11:50:40.384Z,16.00
2019-06-07T11:53:10.727Z,11.70
2019-06-07T11:55:39.608Z,11.40
2019-06-07T11:58:12.710Z,12.05
2019-06-07T12:00:39.096Z,11.33
2019-06-07T12:03:09.363Z,10.10
2019-06-07T12:05:38.281Z,11.75
2019-06-07T12:08:08.048Z,11.30
2019-06-07T12:10:42.517Z,11.67
2019-06-07T12:13:08.378Z,11.20
2019-06-07T12:15:37.213Z,10.48
2019-06-07T12:18:05.925Z,10.63
2019-06-07T12:20:34.654Z,11.03
2019-06-07T12:23:03.742Z,13.70
2019-06-07T12:25:32.555Z,12.67
2019-06-07T12:28:01.617Z,11.45
2019-06-07T12:30:30.384Z,14.58
2019-06-07T12:32:59.485Z,13.00
2019-06-07T12:35:29.138Z,9.10
2019-06-07T12:37:58.510Z,12.33
2019-06-07T12:40:32.227Z,10.17
2019-06-07T12:42:58.731Z,9.80
2019-06-07T12:45:43.976Z,9.27
2019-06-07T12:47:57.967Z,10.73
2019-06-07T12:50:41.898Z,9.73
2019-06-07T12:52:57.215Z,10.15
2019-06-07T12:55:26.401Z,10.13
2019-06-07T12:57:55.190Z,10.80
2019-06-07T13:00:24.556Z,10.10
2019-06-07T13:02:53.434Z,9.93
2019-06-07T13:05:23.708Z,8.60
2019-06-07T13:07:53.030Z,9.70
2019-06-07T13:10:22.130Z,8.77
2019-06-07T13:12:51.141Z,8.70
2019-06-07T13:15:22.001Z,8.60
2019-06-07T13:17:50.414Z,10.10
2019-06-07T13:20:20.460Z,9.53
2019-06-07T13:22:49.378Z,9.97
2019-06-07T13:25:18.555Z,8.67
2019-06-07T13:27:47.375Z,7.07
2019-06-07T13:30:18.964Z,8.37
2019-06-07T13:32:47.906Z,8.53
2019-06-07T13:35:19.704Z,7.57
2019-06-07T13:37:47.644Z,8.03
2019-06-07T13:40:19.268Z,8.93
2019-06-07T13:42:47.776Z,7.80
2019-06-07T13:45:18.044Z,7.73
2019-06-07T13:47:48.864Z,8.40
2019-06-07T13:50:19.598Z,5.77
2019-06-07T13:52:48.622Z,6.27
2019-06-07T13:55:19.776Z,6.23
2019-06-07T13:57:49.540Z,6.10
2019-06-07T14:00:20.880Z,6.07
2019-06-07T14:02:49.363Z,5.63
2019-06-07T14:05:18.736Z,6.50
2019-06-07T14:07:47.632Z,6.53
2019-06-07T14:10:21.657Z,6.77
2019-06-07T14:12:51.269Z,7.87
2019-06-07T14:15:20.594Z,9.07
2019-06-07T14:17:50.487Z,7.30
2019-06-07T14:20:25.459Z,7.42
2019-06-07T14:22:54.363Z,7.15
2019-06-07T14:25:23.124Z,8.77
2019-06-07T14:27:51.937Z,7.00
2019-06-07T14:30:21.973Z,7.17
2019-06-07T14:32:51.366Z,7.30
2019-06-07T14:35:20.192Z,6.47
2019-06-07T14:37:49.285Z,8.33
2019-06-07T14:40:18.901Z,7.37
2019-06-07T14:42:48.378Z,7.17
2019-06-07T14:45:18.057Z,8.23
2019-06-07T14:47:47.090Z,9.27
2019-06-07T14:50:16.807Z,7.90
2019-06-07T14:52:45.981Z,5.95
2019-06-07T14:55:14.976Z,6.30
2019-06-07T14:57:45.253Z,5.85
2019-06-07T15:00:15.115Z,6.10
2019-06-07T15:02:43.934Z,11.50
2019-06-07T15:05:13.955Z,6.10
2019-06-07T15:07:43.395Z,6.10
2019-06-07T15:10:12.312Z,7.27
2019-06-07T15:12:41.033Z,6.87
2019-06-07T15:15:11.222Z,5.50
2019-06-07T15:17:41.738Z,7.13
2019-06-07T15:20:11.365Z,6.75
2019-06-07T15:22:40.207Z,8.80
2019-06-07T15:25:09.243Z,7.13
2019-06-07T15:27:38.365Z,7.27
2019-06-07T15:30:10.470Z,5.73
2019-06-07T15:32:39.525Z,6.13
2019-06-07T15:35:09.309Z,5.65
2019-06-07T15:37:39.252Z,6.15
2019-06-07T15:40:09.201Z,6.17
2019-06-07T15:42:51.223Z,5.83
2019-06-07T15:45:09.801Z,5.37
2019-06-07T15:47:40.473Z,9.23
2019-06-07T15:50:10.209Z,4.90
2019-06-07T15:52:40.752Z,4.85
2019-06-07T15:55:10.901Z,6.07
2019-06-07T15:57:40.336Z,7.30
2019-06-07T16:00:12.165Z,5.80
2019-06-07T16:02:41.772Z,5.37
2019-06-07T16:05:11.308Z,5.78
2019-06-07T16:07:40.462Z,5.20
2019-06-07T16:10:10.499Z,4.90
2019-06-07T16:12:40.791Z,6.35
2019-06-07T16:15:10.419Z,4.67
2019-06-07T16:17:41.818Z,5.17
2019-06-07T16:20:11.831Z,5.12
2019-06-07T16:22:42.018Z,5.75
2019-06-07T16:25:11.451Z,5.80
2019-06-07T16:27:40.728Z,9.48
2019-06-07T16:30:11.020Z,5.10
2019-06-07T16:32:41.561Z,8.03
2019-06-07T16:35:10.816Z,5.20
2019-06-07T16:37:40.957Z,5.62
2019-06-07T16:40:11.023Z,5.20
2019-06-07T16:42:40.620Z,5.17
2019-06-07T16:45:10.427Z,5.50
2019-06-07T16:47:41.240Z,7.62
2019-06-07T16:50:10.533Z,5.90
2019-06-07T16:52:39.352Z,6.40
2019-06-07T16:55:09.647Z,7.33
2019-06-07T16:57:38.666Z,5.75
2019-06-07T17:00:08.618Z,5.70
2019-06-07T17:02:38.142Z,5.58
2019-06-07T17:05:08.015Z,6.03
2019-06-07T17:07:38.165Z,5.17
2019-06-07T17:10:08.000Z,10.45
2019-06-07T17:12:38.350Z,6.70
2019-06-07T17:15:08.861Z,6.72
2019-06-07T17:17:38.820Z,6.30
2019-06-07T17:20:08.613Z,6.25
2019-06-07T17:22:39.094Z,7.55
2019-06-07T17:25:08.609Z,6.03
2019-06-07T17:27:37.525Z,6.03
2019-06-07T17:30:07.649Z,6.17
2019-06-07T17:32:48.510Z,6.40
2019-06-07T17:35:26.086Z,6.62
2019-06-07T17:37:55.080Z,7.17
2019-06-07T17:40:24.282Z,8.48
2019-06-07T17:42:53.038Z,7.33
2019-06-07T17:45:23.154Z,7.62
2019-06-07T17:47:52.274Z,8.03
2019-06-07T17:50:21.418Z,9.47
2019-06-07T17:52:50.387Z,7.90
2019-06-07T17:55:20.685Z,7.85
2019-06-07T17:57:50.802Z,8.13
2019-06-07T18:00:29.439Z,7.40
2019-06-07T18:02:53.044Z,8.00
2019-06-07T18:05:22.096Z,7.53
2019-06-07T18:07:53.889Z,8.48
2019-06-07T18:10:37.006Z,9.58
2019-06-07T18:13:08.617Z,7.65
2019-06-07T18:15:40.230Z,8.20
2019-06-07T18:18:09.125Z,8.15
2019-06-07T18:20:38.409Z,8.30
2019-06-07T18:23:07.209Z,8.30
2019-06-07T18:25:36.143Z,7.87
2019-06-07T18:28:05.250Z,7.62
2019-06-07T18:30:34.042Z,8.33
2019-06-07T18:33:02.832Z,8.00
2019-06-07T18:35:31.637Z,8.08
2019-06-07T18:38:00.983Z,9.38
2019-06-07T18:40:30.379Z,9.17
2019-06-07T18:43:00.005Z,9.23
2019-06-07T18:45:28.797Z,8.90
2019-06-07T18:47:58.297Z,8.77
2019-06-07T18:50:27.091Z,11.10
2019-06-07T18:52:56.080Z,8.40
2019-06-07T18:55:24.789Z,9.40
2019-06-07T18:57:54.405Z,8.40
2019-06-07T19:00:42.779Z,8.30
2019-06-07T19:03:11.817Z,8.93
2019-06-07T19:05:40.913Z,8.10
2019-06-07T19:08:09.916Z,9.60
2019-06-07T19:10:38.716Z,8.80
2019-06-07T19:13:07.444Z,8.93
2019-06-07T19:15:36.204Z,8.03
2019-06-07T19:18:05.498Z,8.73
2019-06-07T19:20:34.255Z,8.20
2019-06-07T19:23:02.987Z,8.00
2019-06-07T19:25:31.849Z,8.20
2019-06-07T19:28:01.147Z,9.07
2019-06-07T19:30:30.270Z,8.07
2019-06-07T19:32:59.678Z,9.75
2019-06-07T19:35:28.621Z,8.85
2019-06-07T19:37:57.865Z,9.60
2019-06-07T19:40:26.803Z,8.57
2019-06-07T19:42:56.486Z,8.03
2019-06-07T19:45:30.220Z,7.87
2019-06-07T19:47:56.507Z,7.77
2019-06-07T19:50:25.769Z,7.67
2019-06-07T19:52:55.067Z,7.23
2019-06-07T19:55:23.867Z,9.20
2019-06-07T19:57:53.379Z,9.60
2019-06-07T20:00:22.590Z,7.90
2019-06-07T20:02:51.433Z,8.78
2019-06-07T20:05:20.678Z,7.90
2019-06-07T20:07:49.743Z,9.00
2019-06-07T20:10:18.964Z,7.87
2019-06-07T20:12:47.681Z,7.87
2019-06-07T20:15:28.523Z,8.00
2019-06-07T20:17:47.090Z,13.27
2019-06-07T20:20:16.326Z,20.93
2019-06-07T20:22:45.773Z,17.27
2019-06-07T20:25:14.930Z,10.03
2019-06-07T20:27:43.752Z,5.17
2019-06-07T20:30:13.889Z,8.90
2019-06-07T20:32:43.618Z,11.20
2019-06-07T20:35:12.354Z,22.50
2019-06-07T20:37:41.134Z,8.07
2019-06-07T20:40:23.561Z,7.60
2019-06-07T20:42:41.565Z,7.33
2019-06-07T20:45:10.864Z,7.03
2019-06-07T20:47:41.421Z,6.10
2019-06-07T20:50:11.042Z,6.57
2019-06-07T20:52:40.015Z,4.15
2019-06-07T20:55:09.892Z,5.45
2019-06-07T20:57:38.788Z,6.53
2019-06-07T21:00:16.615Z,8.10
2019-06-07T21:02:40.785Z,5.33
2019-06-07T21:05:10.106Z,6.03
2019-06-07T21:07:39.216Z,3.20
2019-06-07T21:10:08.670Z,6.43
2019-06-07T21:12:38.976Z,4.43
2019-06-07T21:15:12.099Z,8.27
2019-06-07T21:17:38.653Z,5.50
2019-06-07T21:20:10.338Z,3.57
2019-06-07T21:22:38.543Z,7.90
2019-06-07T21:25:09.223Z,3.27
2019-06-07T21:27:38.588Z,4.53
2019-06-07T21:30:07.774Z,2.17
2019-06-07T21:32:36.653Z,5.00
2019-06-07T21:35:07.860Z,4.90
2019-06-07T21:37:36.980Z,3.33
2019-06-07T21:40:08.241Z,1.60
2019-06-07T21:42:37.389Z,2.57
2019-06-07T21:45:07.920Z,5.03
2019-06-07T21:47:38.898Z,1.20
2019-06-07T21:50:08.835Z,1.47
2019-06-07T21:52:39.657Z,1.87
2019-06-07T21:55:09.457Z,3.20
2019-06-07T21:57:38.771Z,1.30
2019-06-07T22:00:11.562Z,2.17
2019-06-07T22:02:40.734Z,2.60
2019-06-07T22:05:09.695Z,2.30
2019-06-07T22:07:39.038Z,1.63
2019-06-07T22:10:08.219Z,1.30
2019-06-07T22:12:37.228Z,3.07
2019-06-07T22:15:23.374Z,3.37
2019-06-07T22:17:37.112Z,1.80
2019-06-07T22:20:10.780Z,3.40
2019-06-07T22:22:39.732Z,3.87
2019-06-07T22:25:09.259Z,2.22
2019-06-07T22:27:38.171Z,2.03
2019-06-07T22:30:08.488Z,3.73
2019-06-07T22:32:37.546Z,3.00
2019-06-07T22:35:06.835Z,2.87
2019-06-07T22:37:35.921Z,1.67
2019-06-07T22:40:06.214Z,3.83
2019-06-07T22:42:35.112Z,3.50
2019-06-07T22:45:04.291Z,3.13
2019-06-07T22:47:33.154Z,1.57
2019-06-07T22:50:02.206Z,2.47
2019-06-07T22:52:31.016Z,2.70
2019-06-07T22:54:59.896Z,3.27
2019-06-07T22:57:30.313Z,4.10
2019-06-07T23:00:08.596Z,4.12
2019-06-07T23:02:32.544Z,3.13
2019-06-07T23:05:04.685Z,2.50
2019-06-07T23:07:31.989Z,1.30
2019-06-07T23:10:01.032Z,1.70
2019-06-07T23:12:29.807Z,1.73
2019-06-07T23:14:59.519Z,2.40
2019-06-07T23:17:28.273Z,4.67
2019-06-07T23:19:57.058Z,1.83
2019-06-07T23:22:26.350Z,0.80
2019-06-07T23:24:55.100Z,5.53
2019-06-07T23:27:23.911Z,2.27
2019-06-07T23:29:52.621Z,1.30
2019-06-07T23:32:21.634Z,3.03
2019-06-07T23:34:50.413Z,1.80
2019-06-07T23:37:19.505Z,2.00
2019-06-07T23:39:48.290Z,1.10
2019-06-07T23:42:17.595Z,1.42
2019-06-07T23:44:46.516Z,1.40
2019-06-07T23:47:17.321Z,3.50
2019-06-07T23:49:46.076Z,2.23
2019-06-07T23:52:15.591Z,2.93
2019-06-07T23:54:44.354Z,1.97
2019-06-07T23:57:13.993Z,5.63
2019-06-07T23:59:43.392Z,1.23
